createdAt,value
2023-01-27T00:03:25.062Z,35.30
2023-01-27T00:08:28.213Z,36.10
2023-01-27T00:13:31.891Z,39.22
2023-01-27T00:18:33.233Z,35.92
2023-01-27T00:23:52.895Z,28.52
2023-01-27T00:28:54.250Z,38.30
2023-01-27T00:34:01.749Z,27.95
2023-01-27T00:39:04.295Z,22.65
2023-01-27T00:44:06.019Z,22.92
2023-01-27T00:49:07.702Z,19.58
2023-01-27T00:54:09.154Z,17.55
2023-01-27T00:59:10.520Z,11.30
2023-01-27T01:04:11.889Z,11.45
2023-01-27T01:09:13.238Z,12.02
2023-01-27T01:14:14.697Z,9.18
2023-01-27T01:19:16.002Z,10.00
2023-01-27T01:24:17.741Z,11.20
2023-01-27T01:29:19.145Z,10.63
2023-01-27T01:34:20.470Z,11.00
2023-01-27T01:39:21.786Z,13.23
2023-01-27T01:44:26.376Z,13.30
2023-01-27T01:49:39.223Z,11.73
2023-01-27T01:54:48.454Z,15.13
2023-01-27T02:00:01.744Z,9.63
2023-01-27T02:05:11.262Z,11.52
2023-01-27T02:10:13.215Z,10.60
2023-01-27T02:15:15.282Z,13.45
2023-01-27T02:20:43.587Z,14.00
2023-01-27T02:25:53.066Z,14.63
2023-01-27T02:30:54.513Z,14.30
2023-01-27T02:36:03.118Z,15.20
2023-01-27T02:41:40.489Z,16.85
2023-01-27T02:46:41.828Z,15.73
2023-01-27T02:51:43.331Z,12.25
2023-01-27T02:56:44.651Z,12.55
2023-01-27T03:01:46.062Z,15.23
2023-01-27T03:06:47.450Z,12.75
2023-01-27T03:12:07.475Z,14.02
2023-01-27T03:17:27.260Z,10.77
2023-01-27T03:22:28.662Z,10.38
2023-01-27T03:27:30.032Z,9.85
2023-01-27T03:32:32.557Z,9.15
2023-01-27T03:37:52.321Z,12.82
2023-01-27T03:43:12.634Z,11.55
2023-01-27T03:48:14.163Z,12.35
2023-01-27T03:53:15.486Z,11.07
2023-01-27T03:58:28.339Z,10.35
2023-01-27T04:03:51.141Z,10.25
2023-01-27T04:08:52.611Z,11.52
2023-01-27T04:13:54.071Z,9.05
2023-01-27T04:18:56.836Z,10.30
2023-01-27T04:23:58.457Z,10.70
2023-01-27T04:29:00.976Z,10.85
2023-01-27T04:34:02.337Z,13.50
2023-01-27T04:39:03.809Z,11.05
2023-01-27T04:44:06.059Z,8.95
2023-01-27T04:49:08.061Z,9.18
2023-01-27T04:54:09.428Z,11.55
2023-01-27T04:59:12.718Z,10.93
2023-01-27T05:04:14.077Z,10.55
2023-01-27T05:09:15.446Z,8.63
2023-01-27T05:14:16.847Z,8.57
2023-01-27T05:19:18.220Z,7.93
2023-01-27T05:24:19.551Z,8.00
2023-01-27T05:29:21.026Z,9.77
2023-01-27T05:34:22.736Z,6.68
2023-01-27T05:39:24.088Z,7.78
2023-01-27T05:44:25.437Z,8.95
2023-01-27T05:49:26.795Z,12.55
2023-01-27T05:54:28.252Z,8.55
2023-01-27T05:59:29.572Z,10.02
2023-01-27T06:04:30.969Z,12.85
2023-01-27T06:09:32.306Z,11.88
2023-01-27T06:14:33.660Z,12.43
2023-01-27T06:19:34.967Z,11.20
2023-01-27T06:24:36.335Z,12.80
2023-01-27T06:29:37.727Z,11.57
2023-01-27T06:34:39.691Z,15.30
2023-01-27T06:39:41.054Z,12.93
2023-01-27T06:44:42.377Z,12.85
2023-01-27T06:49:43.744Z,12.68
2023-01-27T06:54:45.139Z,11.57
2023-01-27T06:59:46.514Z,10.52
2023-01-27T07:04:48.275Z,11.57
2023-01-27T07:09:52.633Z,12.57
2023-01-27T07:14:54.414Z,7.72
2023-01-27T07:19:55.759Z,8.48
2023-01-27T07:24:57.312Z,8.75
2023-01-27T07:29:58.634Z,10.85
2023-01-27T07:34:59.951Z,9.13
2023-01-27T07:40:01.291Z,7.70
2023-01-27T07:45:02.730Z,9.38
2023-01-27T07:50:04.362Z,10.18
2023-01-27T07:55:06.263Z,8.77
2023-01-27T08:00:08.086Z,8.02
2023-01-27T08:05:09.395Z,7.13
2023-01-27T08:10:11.400Z,7.03
2023-01-27T08:15:14.042Z,7.47
2023-01-27T08:20:15.757Z,9.50
2023-01-27T08:25:17.250Z,8.05
2023-01-27T08:30:19.678Z,8.05
2023-01-27T08:35:21.128Z,7.97
2023-01-27T08:40:22.549Z,6.47
2023-01-27T08:45:23.964Z,6.20
2023-01-27T08:50:25.431Z,6.90
2023-01-27T08:55:31.244Z,8.80
2023-01-27T09:00:32.582Z,6.28
2023-01-27T09:05:35.714Z,5.72
2023-01-27T09:10:39.523Z,6.97
2023-01-27T09:15:40.939Z,6.80
2023-01-27T09:20:42.277Z,8.50
2023-01-27T09:25:43.648Z,6.68
2023-01-27T09:30:46.290Z,8.60
2023-01-27T09:35:57.922Z,7.88
2023-01-27T09:41:36.559Z,7.53
2023-01-27T09:47:13.408Z,7.85
2023-01-27T09:52:52.342Z,7.18
2023-01-27T09:58:10.044Z,5.13
2023-01-27T10:03:37.004Z,4.78
2023-01-27T10:08:59.628Z,4.55
2023-01-27T10:14:26.185Z,4.47
2023-01-27T10:19:48.728Z,3.50
2023-01-27T10:25:28.767Z,4.82
2023-01-27T10:30:34.978Z,5.68
2023-01-27T10:35:58.002Z,4.95
2023-01-27T10:41:27.146Z,3.25
2023-01-27T10:46:56.389Z,3.67
2023-01-27T10:52:05.565Z,3.00
2023-01-27T10:57:17.735Z,2.78
2023-01-27T11:02:32.094Z,3.40
2023-01-27T11:07:46.052Z,2.92
2023-01-27T11:12:51.206Z,3.80
2023-01-27T11:18:10.774Z,4.07
2023-01-27T11:23:21.082Z,2.97
2023-01-27T11:28:42.579Z,2.35
2023-01-27T11:33:46.701Z,4.32
2023-01-27T11:38:48.127Z,2.67
2023-01-27T11:43:50.033Z,2.47
2023-01-27T11:48:56.735Z,1.95
2023-01-27T11:54:15.563Z,3.53
2023-01-27T11:59:32.648Z,1.52
2023-01-27T12:05:01.373Z,2.93
2023-01-27T12:10:03.717Z,1.30
2023-01-27T12:15:05.474Z,1.00
2023-01-27T12:20:32.115Z,1.17
2023-01-27T12:25:46.025Z,0.85
2023-01-27T12:30:48.056Z,0.70
2023-01-27T12:35:50.507Z,0.60
2023-01-27T12:41:04.421Z,0.82
2023-01-27T12:46:19.918Z,0.52
2023-01-27T12:51:24.021Z,1.00
2023-01-27T12:56:25.749Z,1.95
2023-01-27T13:01:33.892Z,0.85
2023-01-27T13:06:43.312Z,0.40
2023-01-27T13:11:45.349Z,0.80
2023-01-27T13:16:55.042Z,1.65
2023-01-27T13:21:56.984Z,0.68
2023-01-27T13:27:00.649Z,0.73
2023-01-27T13:32:23.304Z,0.30
2023-01-27T13:37:48.074Z,1.58
2023-01-27T13:43:10.530Z,0.70
2023-01-27T13:48:26.158Z,1.80
2023-01-27T13:53:27.611Z,0.47
2023-01-27T13:59:19.829Z,0.60
2023-01-27T14:04:55.889Z,0.50
2023-01-27T14:10:23.790Z,0.63
2023-01-27T14:15:51.910Z,0.70
2023-01-27T14:21:14.115Z,1.92
2023-01-27T14:26:48.265Z,0.93
2023-01-27T14:32:04.579Z,2.63
2023-01-27T14:37:22.240Z,6.00
2023-01-27T14:42:41.244Z,1.65
2023-01-27T14:48:10.962Z,0.40
2023-01-27T14:53:34.587Z,0.40
2023-01-27T14:58:51.005Z,3.42
2023-01-27T15:04:25.431Z,1.05
2023-01-27T15:09:39.683Z,0.93
2023-01-27T15:15:03.189Z,0.88
2023-01-27T15:20:29.039Z,1.27
2023-01-27T15:25:44.373Z,0.65
2023-01-27T15:31:09.904Z,1.05
2023-01-27T15:36:32.296Z,0.43
2023-01-27T15:41:33.591Z,1.30
2023-01-27T15:46:37.371Z,0.80
2023-01-27T15:51:38.749Z,0.57
2023-01-27T15:56:47.686Z,0.40
2023-01-27T16:01:58.883Z,0.50
2023-01-27T16:07:02.921Z,0.65
2023-01-27T16:12:20.039Z,1.10
2023-01-27T16:17:25.677Z,0.67
2023-01-27T16:22:30.692Z,1.58
2023-01-27T16:27:51.507Z,1.70
2023-01-27T16:33:07.401Z,2.85
2023-01-27T16:38:24.324Z,4.72
2023-01-27T16:43:31.805Z,1.55
2023-01-27T16:48:45.080Z,2.03
2023-01-27T16:53:48.788Z,1.08
2023-01-27T16:58:51.790Z,1.70
2023-01-27T17:03:56.906Z,1.30
2023-01-27T17:08:59.287Z,1.75
2023-01-27T17:14:02.640Z,2.17
2023-01-27T17:19:21.190Z,1.58
2023-01-27T17:24:27.132Z,3.20
2023-01-27T17:30:03.716Z,1.60
2023-01-27T17:35:08.581Z,1.65
2023-01-27T17:40:18.286Z,4.13
2023-01-27T17:45:23.332Z,1.63
2023-01-27T17:50:31.460Z,2.72
2023-01-27T17:55:32.889Z,1.27
2023-01-27T18:00:42.463Z,1.52
2023-01-27T18:05:46.236Z,2.17
2023-01-27T18:10:47.661Z,1.58
2023-01-27T18:15:50.101Z,1.70
2023-01-27T18:20:57.367Z,1.45
2023-01-27T18:26:12.816Z,1.95
2023-01-27T18:31:22.331Z,2.90
2023-01-27T18:36:28.123Z,2.28
2023-01-27T18:41:32.722Z,3.38
2023-01-27T18:46:34.086Z,2.58
2023-01-27T18:51:35.419Z,2.00
2023-01-27T18:56:36.756Z,2.53
2023-01-27T19:01:38.139Z,1.67
2023-01-27T19:06:39.530Z,2.47
2023-01-27T19:11:40.937Z,3.05
2023-01-27T19:16:42.445Z,2.53
2023-01-27T19:21:43.782Z,3.83
2023-01-27T19:26:45.622Z,4.53
2023-01-27T19:31:47.002Z,4.05
2023-01-27T19:36:48.411Z,2.92
2023-01-27T19:41:49.787Z,2.40
2023-01-27T19:46:51.219Z,1.50
2023-01-27T19:51:53.491Z,4.25
2023-01-27T19:56:54.812Z,2.83
2023-01-27T20:01:56.930Z,2.53
2023-01-27T20:06:58.450Z,1.67
2023-01-27T20:12:00.813Z,2.70
2023-01-27T20:17:02.416Z,3.15
2023-01-27T20:22:03.776Z,2.78
2023-01-27T20:27:05.097Z,1.85
2023-01-27T20:32:09.346Z,1.65
2023-01-27T20:37:11.193Z,2.08
2023-01-27T20:42:12.598Z,2.17
2023-01-27T20:47:15.212Z,3.08
2023-01-27T20:52:16.576Z,2.15
2023-01-27T20:57:20.681Z,1.73
2023-01-27T21:02:22.030Z,2.10
2023-01-27T21:07:24.321Z,2.28
2023-01-27T21:12:27.217Z,3.13
2023-01-27T21:17:28.561Z,2.33
2023-01-27T21:22:29.888Z,2.22
2023-01-27T21:27:31.220Z,2.47
2023-01-27T21:32:32.550Z,2.00
2023-01-27T21:37:36.021Z,2.90
2023-01-27T21:42:55.676Z,2.58
2023-01-27T21:47:57.040Z,1.60
2023-01-27T21:52:58.429Z,3.55
2023-01-27T21:58:00.533Z,2.97
2023-01-27T22:03:03.735Z,3.25
2023-01-27T22:08:06.730Z,3.15
2023-01-27T22:13:10.521Z,2.30
2023-01-27T22:18:12.418Z,3.92
2023-01-27T22:23:13.788Z,1.52
2023-01-27T22:28:15.400Z,4.20
2023-01-27T22:33:16.841Z,2.70
2023-01-27T22:44:29.415Z,1.55
2023-01-27T22:49:30.992Z,3.45
2023-01-27T22:54:32.807Z,2.05
2023-01-27T23:00:09.470Z,1.52
2023-01-27T23:05:13.720Z,2.50
2023-01-27T23:10:16.386Z,3.75
2023-01-27T23:21:48.793Z,4.90
2023-01-27T23:38:34.231Z,2.25
2023-01-27T23:43:38.753Z,3.15
2023-01-27T23:48:40.373Z,2.72
2023-01-27T23:53:42.384Z,3.70
2023-01-27T23:58:46.327Z,3.20
